Time;durP1;ratioP1;P1;durP2;ratioP2;P2;SDS_P1;SDS_P2;PMS_P1;PMS_P2;Temp;Humidity;BMP_temperature;BMP_pressure;BME280_temperature;BME280_humidity;BME280_pressure;Samples;Min_cycle;Max_cycle;Signal;HPM_P1;HPM_P2
2024/01/16 00:01:42;;;;;;;12.52;4.57;;;;;;;-144.74;100.00;63161.41;5057587;28;20395;-73
2024/01/16 00:04:08;;;;;;;13.30;3.60;;;;;;;-144.74;100.00;63161.41;5075577;28;20032;-72
2024/01/16 00:06:33;;;;;;;8.23;3.75;;;;;;;-144.74;100.00;63161.41;5057574;28;20032;-72
2024/01/16 00:08:58;;;;;;;12.15;4.63;;;;;;;-144.74;100.00;63161.41;5057696;28;20060;-72
2024/01/16 00:11:24;;;;;;;14.60;4.75;;;;;;;-144.74;100.00;63161.41;5057233;28;20031;-72
2024/01/16 00:13:49;;;;;;;8.00;4.07;;;;;;;-144.74;100.00;63161.41;5057400;28;20016;-73
2024/01/16 00:16:14;;;;;;;13.68;3.92;;;;;;;-144.74;100.00;63161.41;5053804;28;20056;-73
2024/01/16 00:18:40;;;;;;;10.20;3.87;;;;;;;-144.74;100.00;63161.41;5057942;28;20054;-72
2024/01/16 00:21:08;;;;;;;14.88;4.43;;;;;;;-144.74;100.00;63161.41;5056712;28;20024;-72
2024/01/16 00:23:33;;;;;;;18.20;4.70;;;;;;;-144.74;100.00;63161.41;5057578;28;20024;-72
2024/01/16 00:25:58;;;;;;;15.57;4.40;;;;;;;-144.74;100.00;63161.41;5074311;28;20028;-73
2024/01/16 00:28:24;;;;;;;10.67;4.87;;;;;;;-144.74;100.00;63161.41;5057189;28;20111;-73
2024/01/16 00:30:49;;;;;;;17.17;4.60;;;;;;;-144.74;100.00;63161.41;5055043;28;20032;-72
2024/01/16 00:33:14;;;;;;;10.70;5.03;;;;;;;-144.74;100.00;63161.41;5075404;28;20024;-72
2024/01/16 00:35:40;;;;;;;14.93;5.00;;;;;;;-144.74;100.00;63161.41;5056728;28;20017;-71
2024/01/16 00:38:07;;;;;;;17.10;5.60;;;;;;;-144.74;100.00;63161.41;5056941;28;20052;-73
2024/01/16 00:40:33;;;;;;;11.10;5.13;;;;;;;-144.74;100.00;63161.41;5074535;28;20059;-72
2024/01/16 00:42:58;;;;;;;12.47;5.10;;;;;;;-144.74;100.00;63161.41;5072349;28;20082;-72
2024/01/16 00:45:23;;;;;;;12.33;4.90;;;;;;;-144.74;100.00;63161.41;5057133;28;20062;-72
2024/01/16 00:47:49;;;;;;;17.00;6.15;;;;;;;-144.74;100.00;63161.41;5056061;28;20059;-71
2024/01/16 00:50:14;;;;;;;15.43;7.00;;;;;;;-144.74;100.00;63161.41;5057125;28;20029;-72
2024/01/16 00:52:40;;;;;;;19.77;7.70;;;;;;;-144.74;100.00;63161.41;5073983;28;20091;-73
2024/01/16 00:55:05;;;;;;;16.02;7.97;;;;;;;-144.74;100.00;63161.41;5056263;28;20032;-74
2024/01/16 00:57:30;;;;;;;23.13;8.90;;;;;;;-144.74;100.00;63161.41;5055920;28;20082;-73
2024/01/16 00:59:56;;;;;;;16.93;8.23;;;;;;;-144.74;100.00;63161.41;5055541;28;20016;-75
2024/01/16 01:02:21;;;;;;;22.20;7.10;;;;;;;-144.74;100.00;63161.41;5055596;28;20059;-74
2024/01/16 01:04:47;;;;;;;9.07;5.20;;;;;;;-144.74;100.00;63161.41;5055814;28;20016;-74
2024/01/16 01:07:14;;;;;;;11.77;6.53;;;;;;;-144.74;100.00;63161.41;5055681;28;20028;-75
2024/01/16 01:09:40;;;;;;;14.30;6.57;;;;;;;-144.74;100.00;63161.41;5055120;28;20024;-74
2024/01/16 01:12:05;;;;;;;19.33;6.00;;;;;;;-144.74;100.00;63161.41;5055775;28;20060;-74
2024/01/16 01:14:31;;;;;;;15.13;5.93;;;;;;;-144.74;100.00;63161.41;5055754;28;20100;-74
2024/01/16 01:16:57;;;;;;;17.23;4.97;;;;;;;-144.74;100.00;63161.41;5055086;28;20513;-74
2024/01/16 01:19:22;;;;;;;12.47;5.93;;;;;;;-144.74;100.00;63161.41;5055468;28;20036;-74
2024/01/16 01:21:47;;;;;;;16.67;5.93;;;;;;;-144.74;100.00;63161.41;5055243;28;20039;-74
2024/01/16 01:24:13;;;;;;;16.97;5.93;;;;;;;-144.74;100.00;63161.41;5055487;28;20052;-74
2024/01/16 01:26:38;;;;;;;12.73;5.67;;;;;;;-144.74;100.00;63161.41;5055076;28;20123;-74
2024/01/16 01:29:03;;;;;;;13.13;5.27;;;;;;;-144.74;100.00;63161.41;5055659;28;20128;-73
2024/01/16 01:31:31;;;;;;;11.00;5.43;;;;;;;-144.74;100.00;63161.41;5073193;28;20115;-74
2024/01/16 01:33:57;;;;;;;9.07;5.37;;;;;;;-144.74;100.00;63161.41;5052598;28;20016;-75
2024/01/16 01:36:22;;;;;;;15.37;6.00;;;;;;;-144.74;100.00;63161.41;5055078;28;20032;-74
2024/01/16 01:38:47;;;;;;;13.70;5.50;;;;;;;-144.74;100.00;63161.41;5055418;28;20115;-74
2024/01/16 01:41:13;;;;;;;13.45;5.28;;;;;;;-144.74;100.00;63161.41;5054709;28;20032;-75
2024/01/16 01:43:38;;;;;;;16.33;6.70;;;;;;;-144.74;100.00;63161.41;5055399;28;20093;-75
2024/01/16 01:46:18;;;;;;;9.47;5.57;;;;;;;-144.74;100.00;63161.41;5055165;28;20040;-75
2024/01/16 01:48:47;;;;;;;14.03;6.07;;;;;;;-144.74;100.00;63161.41;5053573;28;20040;-74
2024/01/16 01:51:18;;;;;;;14.60;6.30;;;;;;;-144.74;100.00;63161.41;5072737;28;20036;-74
2024/01/16 01:53:49;;;;;;;11.17;6.10;;;;;;;-144.74;100.00;63161.41;5054190;28;20027;-74
2024/01/16 01:56:17;;;;;;;11.10;5.80;;;;;;;-144.74;100.00;63161.41;5054528;28;20037;-73
2024/01/16 01:58:46;;;;;;;14.00;6.10;;;;;;;-144.74;100.00;63161.41;5055290;28;20060;-75
2024/01/16 02:01:13;;;;;;;16.75;5.90;;;;;;;-144.74;100.00;63161.41;5054752;28;20090;-73
2024/01/16 02:03:46;;;;;;;9.98;5.75;;;;;;;-144.74;100.00;63161.41;5054231;28;20036;-73
2024/01/16 02:06:12;;;;;;;11.57;5.65;;;;;;;-144.74;100.00;63161.41;5054461;28;20040;-73
2024/01/16 02:08:41;;;;;;;11.15;6.07;;;;;;;-144.74;100.00;63161.41;5070998;28;20025;-73
2024/01/16 02:11:07;;;;;;;18.67;7.05;;;;;;;-144.74;100.00;63161.41;5071853;28;20025;-73
2024/01/16 02:13:32;;;;;;;15.33;6.70;;;;;;;-144.74;100.00;63161.41;5054872;28;20593;-73
2024/01/16 02:15:58;;;;;;;17.20;7.65;;;;;;;-144.74;100.00;63161.41;5051011;28;20028;-73
2024/01/16 02:18:23;;;;;;;15.93;8.33;;;;;;;-144.74;100.00;63161.41;5054918;28;20028;-73
2024/01/16 02:20:52;;;;;;;17.03;7.13;;;;;;;-144.74;100.00;63161.41;5053321;28;20021;-73
2024/01/16 02:23:26;;;;;;;25.03;7.80;;;;;;;-144.74;100.00;63161.41;5054097;28;20025;-74
2024/01/16 02:25:51;;;;;;;21.17;8.23;;;;;;;-144.74;100.00;63161.41;5054566;28;20127;-73
2024/01/16 02:28:18;;;;;;;20.33;9.03;;;;;;;-144.74;100.00;63161.41;5072453;28;20046;-73
2024/01/16 02:30:46;;;;;;;19.23;8.33;;;;;;;-144.74;100.00;63161.41;5054865;28;20040;-71
2024/01/16 02:33:12;;;;;;;22.97;11.00;;;;;;;-144.74;100.00;63161.41;5072397;28;20047;-72
2024/01/16 02:35:37;;;;;;;23.97;10.80;;;;;;;-144.74;100.00;63161.41;5054952;28;20032;-72
2024/01/16 02:38:02;;;;;;;20.88;9.27;;;;;;;-144.74;100.00;63161.41;5054677;28;20041;-73
2024/01/16 02:40:28;;;;;;;19.13;10.17;;;;;;;-144.74;100.00;63161.41;5055252;28;20028;-72
2024/01/16 02:42:53;;;;;;;21.10;10.77;;;;;;;-144.74;100.00;63161.41;5054382;28;20196;-72
2024/01/16 02:45:18;;;;;;;22.03;10.00;;;;;;;-144.74;100.00;63161.41;5054782;28;20027;-72
2024/01/16 02:47:44;;;;;;;21.20;9.70;;;;;;;-144.74;100.00;63161.41;5054464;28;20121;-71
2024/01/16 02:50:13;;;;;;;20.50;11.13;;;;;;;-144.74;100.00;63161.41;5072476;28;20024;-71
2024/01/16 02:52:38;;;;;;;23.27;11.52;;;;;;;-144.74;100.00;63161.41;5053966;28;20032;-71
2024/01/16 02:55:04;;;;;;;20.98;11.18;;;;;;;-144.74;100.00;63161.41;5054893;28;20119;-72
2024/01/16 02:57:30;;;;;;;22.53;10.83;;;;;;;-144.74;100.00;63161.41;5053978;28;20051;-71
2024/01/16 02:59:56;;;;;;;23.90;10.73;;;;;;;-144.74;100.00;63161.41;5073008;28;20029;-71
2024/01/16 03:02:22;;;;;;;27.10;11.83;;;;;;;-144.74;100.00;63161.41;5071926;28;20043;-71
2024/01/16 03:04:48;;;;;;;22.23;12.13;;;;;;;-144.74;100.00;63161.41;5072526;28;20487;-71
2024/01/16 03:07:13;;;;;;;22.63;11.63;;;;;;;-144.74;100.00;63161.41;5072191;28;20037;-71
2024/01/16 03:09:38;;;;;;;24.00;11.30;;;;;;;-144.74;100.00;63161.41;5054485;28;20050;-71
2024/01/16 03:12:04;;;;;;;23.17;12.10;;;;;;;-144.74;100.00;63161.41;5053682;28;20094;-71
2024/01/16 03:14:33;;;;;;;30.37;13.10;;;;;;;-144.74;100.00;63161.41;5054155;28;20423;-71
2024/01/16 03:17:01;;;;;;;26.70;15.20;;;;;;;-144.74;100.00;63161.41;5065868;28;20033;-71
2024/01/16 03:19:26;;;;;;;31.87;17.20;;;;;;;-144.74;100.00;63161.41;5054446;28;20056;-71
2024/01/16 03:21:52;;;;;;;34.03;19.60;;;;;;;-144.74;100.00;63161.41;5053688;28;20032;-71
2024/01/16 03:24:17;;;;;;;39.60;19.87;;;;;;;-144.74;100.00;63161.41;5054292;28;20028;-71
2024/01/16 03:26:43;;;;;;;38.30;19.67;;;;;;;-144.74;100.00;63161.41;5053352;28;20032;-71
2024/01/16 03:29:08;;;;;;;40.17;21.13;;;;;;;-144.74;100.00;63161.41;5060149;28;20115;-72
2024/01/16 03:31:34;;;;;;;40.90;20.00;;;;;;;-144.74;100.00;63161.41;5053344;28;20067;-71
2024/01/16 03:33:59;;;;;;;33.47;19.03;;;;;;;-144.74;100.00;63161.41;5054114;28;20112;-71
2024/01/16 03:36:24;;;;;;;35.07;19.50;;;;;;;-144.74;100.00;63161.41;5054234;28;20111;-72
2024/01/16 03:38:50;;;;;;;31.67;17.43;;;;;;;-144.74;100.00;63161.41;5054914;28;20085;-72
2024/01/16 03:41:15;;;;;;;31.77;17.20;;;;;;;-144.74;100.00;63161.41;5053612;28;20048;-71
2024/01/16 03:43:40;;;;;;;30.77;17.43;;;;;;;-144.74;100.00;63161.41;5053999;28;20083;-71
2024/01/16 03:46:06;;;;;;;31.17;16.57;;;;;;;-144.74;100.00;63161.41;5053788;28;20029;-71
2024/01/16 03:48:31;;;;;;;31.83;15.90;;;;;;;-144.74;100.00;63161.41;5072058;28;20024;-71
2024/01/16 03:50:57;;;;;;;34.93;16.60;;;;;;;-144.74;100.00;63161.41;5053170;28;20029;-71
2024/01/16 03:53:23;;;;;;;29.13;14.77;;;;;;;-144.74;100.00;63161.41;5072012;28;20021;-71
2024/01/16 03:55:49;;;;;;;31.07;16.53;;;;;;;-144.74;100.00;63161.41;5053921;28;20056;-71
2024/01/16 03:58:16;;;;;;;28.63;17.37;;;;;;;-144.74;100.00;63161.41;5053607;28;20053;-71
2024/01/16 04:00:41;;;;;;;32.60;16.77;;;;;;;-144.74;100.00;63161.41;5054029;28;20024;-71
2024/01/16 04:03:07;;;;;;;27.70;15.57;;;;;;;-144.74;100.00;63161.41;5053193;28;20094;-72
2024/01/16 04:05:33;;;;;;;34.90;16.57;;;;;;;-144.74;100.00;63161.41;5053966;28;20025;-71
2024/01/16 04:07:58;;;;;;;28.87;17.20;;;;;;;-144.74;100.00;63161.41;5053303;28;20032;-73
2024/01/16 04:10:24;;;;;;;36.60;18.77;;;;;;;-144.74;100.00;63161.41;5052472;28;20028;-73
2024/01/16 04:12:49;;;;;;;32.97;17.10;;;;;;;-144.74;100.00;63161.41;5052026;28;20124;-73
2024/01/16 04:15:14;;;;;;;35.13;18.30;;;;;;;-144.74;100.00;63161.41;5052648;28;20056;-73
2024/01/16 04:17:40;;;;;;;33.03;17.53;;;;;;;-144.74;100.00;63161.41;5052226;28;20039;-73
2024/01/16 04:20:06;;;;;;;35.73;15.63;;;;;;;-144.74;100.00;63161.41;5053063;28;20024;-73
2024/01/16 04:22:32;;;;;;;34.93;17.77;;;;;;;-144.74;100.00;63161.41;5052140;28;20032;-73
2024/01/16 04:24:58;;;;;;;35.40;17.50;;;;;;;-144.74;100.00;63161.41;5053184;28;20020;-73
2024/01/16 04:27:25;;;;;;;35.03;18.27;;;;;;;-144.74;100.00;63161.41;5070339;28;20119;-74
2024/01/16 04:29:50;;;;;;;34.37;19.20;;;;;;;-144.74;100.00;63161.41;5070627;28;20025;-73
2024/01/16 04:32:16;;;;;;;36.00;18.97;;;;;;;-144.74;100.00;63161.41;5052202;28;20039;-73
2024/01/16 04:34:41;;;;;;;35.63;16.70;;;;;;;-144.74;100.00;63161.41;5052379;28;20024;-73
2024/01/16 04:37:06;;;;;;;28.70;16.00;;;;;;;-144.74;100.00;63161.41;5070709;28;20556;-73
2024/01/16 04:39:32;;;;;;;27.73;16.53;;;;;;;-144.74;100.00;63161.41;5070401;28;20063;-74
2024/01/16 04:41:57;;;;;;;30.03;16.43;;;;;;;-144.74;100.00;63161.41;5051971;28;20032;-73
2024/01/16 04:44:22;;;;;;;31.80;15.87;;;;;;;-144.74;100.00;63161.41;5054240;28;20035;-72
2024/01/16 04:46:47;;;;;;;28.73;15.43;;;;;;;-144.74;100.00;63161.41;5056079;28;20028;-73
2024/01/16 04:49:13;;;;;;;23.33;13.93;;;;;;;-144.74;100.00;63161.41;5056033;28;20024;-73
2024/01/16 04:51:38;;;;;;;28.63;15.77;;;;;;;-144.74;100.00;63161.41;5054804;28;20033;-73
2024/01/16 04:54:03;;;;;;;22.50;13.67;;;;;;;-144.74;100.00;63161.41;5056063;28;20025;-72
2024/01/16 04:56:29;;;;;;;25.27;13.80;;;;;;;-144.74;100.00;63161.41;5055555;28;20392;-73
2024/01/16 04:58:54;;;;;;;28.83;13.80;;;;;;;-144.74;100.00;63161.41;5055846;28;20506;-73
2024/01/16 05:01:20;;;;;;;29.70;13.37;;;;;;;-144.74;100.00;63161.41;5055497;28;20514;-73
2024/01/16 05:03:45;;;;;;;23.87;13.40;;;;;;;-144.74;100.00;63161.41;5050423;28;20112;-73
2024/01/16 05:06:17;;;;;;;27.97;14.10;;;;;;;-144.74;100.00;63161.41;5073171;28;20052;-73
2024/01/16 05:08:43;;;;;;;23.43;13.47;;;;;;;-144.74;100.00;63161.41;5054220;28;20060;-73
2024/01/16 05:11:09;;;;;;;30.13;12.87;;;;;;;-144.74;100.00;63161.41;5054958;28;20032;-73
2024/01/16 05:13:34;;;;;;;30.03;11.80;;;;;;;-144.74;100.00;63161.41;5055327;28;20020;-73
2024/01/16 05:16:00;;;;;;;24.70;11.97;;;;;;;-144.74;100.00;63161.41;5055488;28;20028;-74
2024/01/16 05:18:25;;;;;;;23.17;11.47;;;;;;;-144.74;100.00;63161.41;5073493;28;20036;-73
2024/01/16 05:20:55;;;;;;;24.17;13.30;;;;;;;-144.74;100.00;63161.41;5055280;28;20043;-73
2024/01/16 05:23:20;;;;;;;22.30;13.23;;;;;;;-144.74;100.00;63161.41;5073030;28;20117;-73
2024/01/16 05:25:45;;;;;;;28.93;16.03;;;;;;;-144.74;100.00;63161.41;5055588;28;20064;-73
2024/01/16 05:28:11;;;;;;;28.77;14.20;;;;;;;-144.74;100.00;63161.41;5073092;28;20060;-73
2024/01/16 05:30:36;;;;;;;27.17;14.37;;;;;;;-144.74;100.00;63161.41;5073074;28;20028;-73
2024/01/16 05:33:02;;;;;;;29.67;14.77;;;;;;;-144.74;100.00;63161.41;5055314;28;20408;-73
2024/01/16 05:35:28;;;;;;;29.17;15.80;;;;;;;-144.74;100.00;63161.41;5072937;28;20078;-73
2024/01/16 05:37:54;;;;;;;24.30;15.43;;;;;;;-144.74;100.00;63161.41;5054509;28;20112;-73
2024/01/16 05:40:19;;;;;;;27.53;14.37;;;;;;;-144.74;100.00;63161.41;5050979;28;20389;-73
2024/01/16 05:42:45;;;;;;;31.17;13.77;;;;;;;-144.74;100.00;63161.41;5054708;28;20028;-73
2024/01/16 05:45:10;;;;;;;23.23;12.63;;;;;;;-144.74;100.00;63161.41;5072363;28;20028;-72
2024/01/16 05:47:36;;;;;;;26.50;14.57;;;;;;;-144.74;100.00;63161.41;5054760;28;20498;-74
2024/01/16 05:50:01;;;;;;;26.00;13.20;;;;;;;-144.74;100.00;63161.41;5053957;28;20029;-74
2024/01/16 05:52:26;;;;;;;26.50;11.93;;;;;;;-144.74;100.00;63161.41;5055119;28;20043;-73
2024/01/16 05:54:52;;;;;;;20.20;10.80;;;;;;;-144.74;100.00;63161.41;5071822;28;20390;-73
2024/01/16 05:57:17;;;;;;;29.63;10.80;;;;;;;-144.74;100.00;63161.41;5054476;28;20499;-73
2024/01/16 05:59:43;;;;;;;18.20;9.97;;;;;;;-144.74;100.00;63161.41;5054591;28;20016;-73
2024/01/16 06:02:08;;;;;;;19.53;9.70;;;;;;;-144.74;100.00;63161.41;5054387;28;20033;-73
2024/01/16 06:04:33;;;;;;;18.63;10.30;;;;;;;-144.74;100.00;63161.41;5053840;28;20028;-73
2024/01/16 06:06:58;;;;;;;17.77;10.47;;;;;;;-144.74;100.00;63161.41;5051862;28;20028;-73
2024/01/16 06:09:24;;;;;;;21.40;9.13;;;;;;;-144.74;100.00;63161.41;5049866;28;20025;-73
2024/01/16 06:11:49;;;;;;;19.67;8.00;;;;;;;-144.74;100.00;63161.41;5053425;28;20037;-73
2024/01/16 06:14:21;;;;;;;16.03;8.37;;;;;;;-144.74;100.00;63161.41;5054237;28;20032;-73
2024/01/16 06:16:47;;;;;;;;;;;;;;;-144.74;100.00;63161.41;5054088;28;20032;-72
2024/01/16 06:19:12;;;;;;;11.63;6.50;;;;;;;-144.74;100.00;63161.41;5054377;28;20282;-72
2024/01/16 06:21:39;;;;;;;17.90;6.67;;;;;;;-144.74;100.00;63161.41;5071186;28;20035;-73
2024/01/16 06:24:05;;;;;;;17.83;5.30;;;;;;;-144.74;100.00;63161.41;5053926;28;20025;-73
2024/01/16 06:26:31;;;;;;;20.30;6.30;;;;;;;-144.74;100.00;63161.41;5053700;28;20028;-73
2024/01/16 06:28:56;;;;;;;16.93;5.67;;;;;;;-144.74;100.00;63161.41;5054446;28;20048;-74
2024/01/16 06:31:22;;;;;;;12.93;5.33;;;;;;;-144.74;100.00;63161.41;5052798;28;20041;-74
2024/01/16 06:33:50;;;;;;;19.90;4.97;;;;;;;-144.74;100.00;63161.41;5053655;28;20009;-74
2024/01/16 06:36:16;;;;;;;15.90;4.97;;;;;;;-144.74;100.00;63161.41;5053345;28;20049;-74
2024/01/16 06:38:44;;;;;;;9.53;4.50;;;;;;;-144.74;100.00;63161.41;5054319;28;20020;-73
2024/01/16 06:41:09;;;;;;;18.50;4.90;;;;;;;-144.74;100.00;63161.41;5053438;28;20058;-74
2024/01/16 06:43:35;;;;;;;26.10;7.07;;;;;;;-144.74;100.00;63161.41;5052914;28;20028;-73
2024/01/16 06:46:00;;;;;;;26.97;6.43;;;;;;;-144.74;100.00;63161.41;5053504;28;20012;-73
2024/01/16 06:48:26;;;;;;;19.37;5.27;;;;;;;-144.74;100.00;63161.41;5071679;28;20455;-73
2024/01/16 06:50:51;;;;;;;18.53;4.60;;;;;;;-144.74;100.00;63161.41;5052917;28;20067;-73
2024/01/16 06:53:17;;;;;;;20.83;5.93;;;;;;;-144.74;100.00;63161.41;5053649;28;20065;-74
2024/01/16 06:55:42;;;;;;;22.90;5.90;;;;;;;-144.74;100.00;63161.41;5053543;28;20021;-73
2024/01/16 06:58:09;;;;;;;16.93;5.70;;;;;;;-144.74;100.00;63161.41;5053332;28;20058;-74
2024/01/16 07:00:35;;;;;;;12.87;6.10;;;;;;;-144.74;100.00;63161.41;5053130;28;20031;-74
2024/01/16 07:03:00;;;;;;;30.43;7.90;;;;;;;-144.74;100.00;63161.41;5052702;28;20037;-74
2024/01/16 07:05:25;;;;;;;26.13;7.20;;;;;;;-144.74;100.00;63161.41;5053088;28;20032;-73
2024/01/16 07:07:51;;;;;;;19.77;7.23;;;;;;;-144.74;100.00;63161.41;5052127;28;20417;-73
2024/01/16 07:10:21;;;;;;;19.57;7.63;;;;;;;-144.74;100.00;63161.41;5053429;28;20025;-74
2024/01/16 07:12:49;;;;;;;24.20;7.88;;;;;;;-144.74;100.00;63161.41;5052454;28;20096;-73
2024/01/16 07:15:14;;;;;;;31.00;10.13;;;;;;;-144.74;100.00;63161.41;5053457;28;20024;-74
2024/01/16 07:17:41;;;;;;;28.07;10.07;;;;;;;-144.74;100.00;63161.41;5052727;28;20063;-73
2024/01/16 07:20:07;;;;;;;30.20;8.57;;;;;;;-144.74;100.00;63161.41;5053460;28;20090;-74
2024/01/16 07:22:34;;;;;;;33.50;9.60;;;;;;;-144.74;100.00;63161.41;5052062;28;20036;-74
2024/01/16 07:24:59;;;;;;;30.53;8.87;;;;;;;-144.74;100.00;63161.41;5065200;28;20463;-73
2024/01/16 07:27:25;;;;;;;26.55;9.45;;;;;;;-144.74;100.00;63161.41;5052707;28;20081;-73
2024/01/16 07:29:50;;;;;;;27.53;8.87;;;;;;;-144.74;100.00;63161.41;5053279;28;20032;-73
2024/01/16 07:32:16;;;;;;;29.23;11.37;;;;;;;-144.74;100.00;63161.41;5052825;28;20090;-73
2024/01/16 07:34:41;;;;;;;21.13;8.80;;;;;;;-144.74;100.00;63161.41;5052466;28;20024;-73
2024/01/16 07:37:06;;;;;;;34.63;11.07;;;;;;;-144.74;100.00;63161.41;5052561;28;20123;-73
2024/01/16 07:39:32;;;;;;;29.23;10.27;;;;;;;-144.74;100.00;63161.41;5048799;28;20071;-74
2024/01/16 07:41:57;;;;;;;25.30;10.00;;;;;;;-144.74;100.00;63161.41;5052420;28;20059;-74
2024/01/16 07:44:23;;;;;;;26.37;10.03;;;;;;;-144.74;100.00;63161.41;5051986;28;20549;-73
2024/01/16 07:46:49;;;;;;;31.90;10.90;;;;;;;-144.74;100.00;63161.41;5052125;28;20028;-73
2024/01/16 07:49:16;;;;;;;29.73;10.73;;;;;;;-144.74;100.00;63161.41;5053556;28;20078;-73
2024/01/16 07:51:41;;;;;;;39.33;11.47;;;;;;;-144.74;100.00;63161.41;5051951;28;20028;-74
2024/01/16 07:54:08;;;;;;;31.70;12.83;;;;;;;-144.74;100.00;63161.41;5053022;28;20407;-74
2024/01/16 07:56:35;;;;;;;33.87;10.57;;;;;;;-144.74;100.00;63161.41;5070153;28;20376;-74
2024/01/16 07:59:01;;;;;;;38.77;13.27;;;;;;;-144.74;100.00;63161.41;5053080;28;20025;-74
2024/01/16 08:01:28;;;;;;;31.17;13.20;;;;;;;-144.74;100.00;63161.41;5070266;28;20085;-73
2024/01/16 08:03:54;;;;;;;25.00;14.53;;;;;;;-144.74;100.00;63161.41;5052543;28;20028;-74
2024/01/16 08:06:19;;;;;;;28.37;14.53;;;;;;;-144.74;100.00;63161.41;5052330;28;20033;-74
2024/01/16 08:08:46;;;;;;;33.13;15.27;;;;;;;-144.74;100.00;63161.41;5070527;28;20407;-73
2024/01/16 08:11:11;;;;;;;31.87;15.63;;;;;;;-144.74;100.00;63161.41;5070720;28;20111;-74
2024/01/16 08:13:37;;;;;;;30.43;15.80;;;;;;;-144.74;100.00;63161.41;5070111;28;20035;-73
2024/01/16 08:16:02;;;;;;;29.07;13.77;;;;;;;-144.74;100.00;63161.41;5052311;28;20074;-74
2024/01/16 08:18:28;;;;;;;21.63;10.97;;;;;;;-144.74;100.00;63161.41;5054296;28;20028;-73
2024/01/16 08:20:53;;;;;;;35.37;10.90;;;;;;;-144.74;100.00;63161.41;5055804;28;20082;-73
2024/01/16 08:23:18;;;;;;;17.50;9.47;;;;;;;-144.74;100.00;63161.41;5056599;28;20024;-71
2024/01/16 08:25:43;;;;;;;28.10;8.70;;;;;;;-144.74;100.00;63161.41;5074558;28;20402;-70
2024/01/16 08:28:09;;;;;;;22.20;8.23;;;;;;;-144.74;100.00;63161.41;5073142;28;20060;-71
2024/01/16 08:30:35;;;;;;;26.87;7.70;;;;;;;-144.74;100.00;63161.41;5053080;28;21099;-69
2024/01/16 08:33:00;;;;;;;20.83;7.27;;;;;;;-144.74;100.00;63161.41;5054281;28;20031;-72
2024/01/16 08:35:26;;;;;;;20.40;7.10;;;;;;;-144.74;100.00;63161.41;5060505;28;20048;-71
2024/01/16 08:37:51;;;;;;;24.07;6.87;;;;;;;-144.74;100.00;63161.41;5056385;28;21357;-70
2024/01/16 08:40:17;;;;;;;24.67;7.73;;;;;;;-144.74;100.00;63161.41;5057404;28;20399;-70
2024/01/16 08:42:42;;;;;;;22.43;7.33;;;;;;;-144.74;100.00;63161.41;5056010;28;20120;-69
2024/01/16 08:45:08;;;;;;;23.07;6.70;;;;;;;-144.74;100.00;63161.41;5056813;28;20475;-70
2024/01/16 08:47:34;;;;;;;24.53;10.93;;;;;;;-144.74;100.00;63161.41;5055669;28;20150;-69
2024/01/16 08:49:59;;;;;;;25.33;8.63;;;;;;;-144.74;100.00;63161.41;5037948;28;20051;-70
2024/01/16 08:52:24;;;;;;;24.20;8.70;;;;;;;-144.74;100.00;63161.41;5052814;28;20036;-70
2024/01/16 08:54:50;;;;;;;32.00;10.10;;;;;;;-144.74;100.00;63161.41;5054452;28;20024;-71
2024/01/16 08:57:15;;;;;;;35.35;11.60;;;;;;;-144.74;100.00;63161.41;5052446;28;20495;-71
2024/01/16 08:59:41;;;;;;;35.20;11.23;;;;;;;-144.74;100.00;63161.41;5054072;28;20032;-69
2024/01/16 09:02:07;;;;;;;33.57;12.27;;;;;;;-144.74;100.00;63161.41;5050693;28;22697;-70
2024/01/16 09:04:32;;;;;;;26.40;12.90;;;;;;;-144.74;100.00;63161.41;5016095;28;20056;-69
2024/01/16 09:06:58;;;;;;;35.90;11.70;;;;;;;-144.74;100.00;63161.41;5048318;28;20063;-71
2024/01/16 09:09:23;;;;;;;35.73;9.90;;;;;;;-144.74;100.00;63161.41;5051767;28;20044;-67
2024/01/16 09:11:49;;;;;;;25.97;10.27;;;;;;;-144.74;100.00;63161.41;5051443;28;20074;-70
2024/01/16 09:14:14;;;;;;;29.80;10.47;;;;;;;-144.74;100.00;63161.41;5051015;28;20036;-70
2024/01/16 09:16:40;;;;;;;29.47;9.60;;;;;;;-144.74;100.00;63161.41;5047943;28;20028;-70
2024/01/16 09:19:06;;;;;;;23.60;8.33;;;;;;;-144.74;100.00;63161.41;5047408;28;20098;-70
2024/01/16 09:21:32;;;;;;;25.33;9.40;;;;;;;-144.74;100.00;63161.41;5053269;28;20028;-69
2024/01/16 09:23:57;;;;;;;26.87;8.30;;;;;;;-144.74;100.00;63161.41;5053250;28;20036;-69
2024/01/16 09:26:23;;;;;;;21.13;8.33;;;;;;;-144.74;100.00;63161.41;5053556;28;20059;-68
2024/01/16 09:28:48;;;;;;;26.17;9.23;;;;;;;-144.74;100.00;63161.41;5057161;28;20089;-69
2024/01/16 09:31:15;;;;;;;22.47;7.57;;;;;;;-144.74;100.00;63161.41;5053249;28;20052;-70
2024/01/16 09:33:40;;;;;;;27.97;8.20;;;;;;;-144.74;100.00;63161.41;5051453;28;20028;-70
2024/01/16 09:36:06;;;;;;;25.53;8.20;;;;;;;-144.74;100.00;63161.41;5054130;28;20391;-69
2024/01/16 09:38:32;;;;;;;21.17;7.93;;;;;;;-144.74;100.00;63161.41;5052824;28;20026;-70
2024/01/16 09:40:59;;;;;;;19.23;6.13;;;;;;;-144.74;100.00;63161.41;5053019;28;20039;-69
2024/01/16 09:43:27;;;;;;;30.10;7.03;;;;;;;-144.74;100.00;63161.41;5052391;28;20108;-70
2024/01/16 09:45:55;;;;;;;23.83;8.07;;;;;;;-144.74;100.00;63161.41;5052295;28;20051;-69
2024/01/16 09:48:21;;;;;;;20.10;6.43;;;;;;;-144.74;100.00;63161.41;5052779;28;20025;-68
2024/01/16 09:50:46;;;;;;;21.40;5.97;;;;;;;-144.74;100.00;63161.41;5067813;28;20040;-69
2024/01/16 09:53:12;;;;;;;19.40;5.30;;;;;;;-144.74;100.00;63161.41;5052725;28;20460;-69
2024/01/16 09:55:37;;;;;;;29.03;6.00;;;;;;;-144.74;100.00;63161.41;5052678;28;20111;-70
2024/01/16 09:58:05;;;;;;;22.90;5.27;;;;;;;-144.74;100.00;63161.41;5052290;28;20024;-68
2024/01/16 10:00:31;;;;;;;20.43;5.53;;;;;;;-144.74;100.00;63161.41;5054602;28;20029;-71
2024/01/16 10:02:58;;;;;;;30.50;5.07;;;;;;;-144.74;100.00;63161.41;5056655;28;20098;-70
2024/01/16 10:05:24;;;;;;;22.00;6.27;;;;;;;-144.74;100.00;63161.41;5054848;28;20047;-70
2024/01/16 10:07:51;;;;;;;17.80;5.77;;;;;;;-144.74;100.00;63161.41;5055841;28;20032;-70
2024/01/16 10:10:16;;;;;;;21.40;5.07;;;;;;;-144.74;100.00;63161.41;5054932;28;20071;-71
2024/01/16 10:12:43;;;;;;;25.60;5.40;;;;;;;-144.74;100.00;63161.41;5053173;28;20024;-71
2024/01/16 10:15:09;;;;;;;15.03;4.33;;;;;;;-144.74;100.00;63161.41;5053408;28;20116;-69
2024/01/16 10:17:37;;;;;;;23.07;5.27;;;;;;;-144.74;100.00;63161.41;5052383;28;20090;-69
2024/01/16 10:20:04;;;;;;;13.00;4.03;;;;;;;-144.74;100.00;63161.41;5052677;28;20067;-69
2024/01/16 10:22:30;;;;;;;33.10;4.73;;;;;;;-144.74;100.00;63161.41;5052882;28;20074;-70
2024/01/16 10:25:11;;;;;;;26.03;4.40;;;;;;;-144.74;100.00;63161.41;5054205;28;20127;-70
2024/01/16 10:27:38;;;;;;;13.88;3.38;;;;;;;-144.74;100.00;63161.41;5052864;28;20028;-69
2024/01/16 10:30:04;;;;;;;16.10;3.57;;;;;;;-144.74;100.00;63161.41;5053302;28;20024;-70
2024/01/16 10:32:40;;;;;;;16.53;4.03;;;;;;;-144.74;100.00;63161.41;5054606;28;20073;-70
2024/01/16 10:35:10;;;;;;;11.27;3.20;;;;;;;-144.74;100.00;63161.41;5053540;28;20101;-70
2024/01/16 10:37:54;;;;;;;18.17;4.00;;;;;;;-144.74;100.00;63161.41;5054068;28;20027;-70
2024/01/16 10:40:29;;;;;;;30.37;4.13;;;;;;;-144.74;100.00;63161.41;5050154;28;20032;-70
2024/01/16 10:43:05;;;;;;;13.70;3.40;;;;;;;-144.74;100.00;63161.41;5053237;28;20021;-71
2024/01/16 10:45:31;;;;;;;21.40;4.33;;;;;;;-144.74;100.00;63161.41;5053282;28;20028;-70
2024/01/16 10:48:07;;;;;;;32.75;4.38;;;;;;;-144.74;100.00;63161.41;5054203;28;20079;-70
2024/01/16 10:50:34;;;;;;;21.08;3.75;;;;;;;-144.74;100.00;63161.41;5053111;28;20036;-70
2024/01/16 10:53:04;;;;;;;23.52;3.10;;;;;;;-144.74;100.00;63161.41;5053836;28;20023;-70
2024/01/16 10:55:32;;;;;;;20.07;3.90;;;;;;;-144.74;100.00;63161.41;5053116;28;20037;-69